createdAt,value
2018-11-01T00:02:59.175Z,62.42
2018-11-01T00:07:02.752Z,62.58
2018-11-01T00:11:06.734Z,62.55
2018-11-01T00:15:12.302Z,62.73
2018-11-01T00:19:15.831Z,63.12
2018-11-01T00:23:19.659Z,63.31
2018-11-01T00:27:23.228Z,63.28
2018-11-01T00:31:26.731Z,63.41
2018-11-01T00:35:30.798Z,63.34
2018-11-01T00:39:34.982Z,63.54
2018-11-01T00:43:39.278Z,63.70
2018-11-01T00:47:42.912Z,63.79
2018-11-01T00:51:46.424Z,64.19
2018-11-01T00:55:50.335Z,64.19
2018-11-01T00:59:53.874Z,64.96
2018-11-01T01:03:57.677Z,64.76
2018-11-01T01:08:01.272Z,64.79
2018-11-01T01:12:05.841Z,64.43
2018-11-01T01:16:09.494Z,64.76
2018-11-01T01:20:15.351Z,64.65
2018-11-01T01:24:18.970Z,64.23
2018-11-01T01:28:23.392Z,64.66
2018-11-01T01:32:27.020Z,64.70
2018-11-01T01:36:30.977Z,64.37
2018-11-01T01:40:35.152Z,63.81
2018-11-01T01:44:38.930Z,64.45
2018-11-01T01:48:43.194Z,64.36
2018-11-01T01:52:47.314Z,64.07
2018-11-01T01:56:51.237Z,63.99
2018-11-01T02:00:55.242Z,64.23
2018-11-01T02:04:59.598Z,64.42
2018-11-01T02:09:03.298Z,64.64
2018-11-01T02:13:06.986Z,64.41
2018-11-01T02:17:10.743Z,63.34
2018-11-01T02:21:14.614Z,63.31
2018-11-01T02:25:18.410Z,62.32
2018-11-01T02:29:22.530Z,62.32
2018-11-01T02:33:26.038Z,62.00
2018-11-01T02:37:30.262Z,61.56
2018-11-01T02:41:34.051Z,61.09
2018-11-01T02:45:38.283Z,61.30
2018-11-01T02:49:42.303Z,61.08
2018-11-01T02:53:45.914Z,60.76
2018-11-01T02:57:50.053Z,60.46
2018-11-01T03:01:53.587Z,60.38
2018-11-01T03:05:57.666Z,60.02
2018-11-01T03:10:02.494Z,60.21
2018-11-01T03:14:06.035Z,60.67
2018-11-01T03:18:10.311Z,60.77
2018-11-01T03:22:14.215Z,60.32
2018-11-01T03:26:17.816Z,60.37
2018-11-01T03:30:21.359Z,60.68
2018-11-01T03:34:25.428Z,61.00
2018-11-01T03:38:29.568Z,60.72
2018-11-01T03:42:33.061Z,60.82
2018-11-01T03:46:37.676Z,61.18
2018-11-01T03:50:41.474Z,61.20
2018-11-01T03:54:45.655Z,61.90
2018-11-01T03:58:49.260Z,61.67
2018-11-01T04:02:53.073Z,62.48
2018-11-01T04:06:56.602Z,62.96
2018-11-01T04:11:00.897Z,62.06
2018-11-01T04:15:05.165Z,63.12
2018-11-01T04:19:09.081Z,62.44
2018-11-01T04:23:12.798Z,62.52
2018-11-01T04:27:16.750Z,62.85
2018-11-01T04:31:20.469Z,63.05
2018-11-01T04:35:24.455Z,62.57
2018-11-01T04:39:28.458Z,62.80
2018-11-01T04:43:32.477Z,63.89
2018-11-01T04:47:36.126Z,62.74
2018-11-01T04:51:39.662Z,62.99
2018-11-01T04:55:43.150Z,63.00
2018-11-01T04:59:46.683Z,63.09
2018-11-01T05:03:53.445Z,63.21
2018-11-01T05:07:57.528Z,63.13
2018-11-01T05:12:01.279Z,62.39
2018-11-01T05:16:04.917Z,62.34
2018-11-01T05:20:10.336Z,62.48
2018-11-01T05:24:14.534Z,63.41
2018-11-01T05:28:18.941Z,62.39
2018-11-01T05:32:23.620Z,62.59
2018-11-01T05:36:27.135Z,62.62
2018-11-01T05:40:30.799Z,61.76
2018-11-01T05:44:34.629Z,62.33
2018-11-01T05:48:38.432Z,61.59
2018-11-01T05:52:42.168Z,61.29
2018-11-01T05:56:45.898Z,61.49
2018-11-01T06:00:49.716Z,62.01
2018-11-01T06:04:53.568Z,62.02
2018-11-01T06:08:57.647Z,61.43
2018-11-01T06:13:01.537Z,61.59
2018-11-01T06:17:05.383Z,61.81
2018-11-01T06:21:09.434Z,61.94
2018-11-01T06:25:13.326Z,61.52
2018-11-01T06:29:17.049Z,61.60
2018-11-01T06:33:20.920Z,62.00
2018-11-01T06:37:24.741Z,61.26
2018-11-01T06:41:28.477Z,61.62
2018-11-01T06:45:32.260Z,61.88
2018-11-01T06:49:35.997Z,61.44
2018-11-01T06:53:39.728Z,61.60
2018-11-01T06:57:43.463Z,61.53
2018-11-01T07:01:47.206Z,61.24
2018-11-01T07:05:51.048Z,61.18
2018-11-01T07:09:54.694Z,60.93
2018-11-01T07:13:58.518Z,60.53
2018-11-01T07:18:03.367Z,60.28
2018-11-01T07:22:06.961Z,60.66
2018-11-01T07:26:10.628Z,60.39
2018-11-01T07:30:15.756Z,60.87
2018-11-01T07:34:19.572Z,60.96
2018-11-01T07:38:23.405Z,61.13
2018-11-01T07:42:27.243Z,60.77
2018-11-01T07:46:31.032Z,61.03
2018-11-01T07:50:34.722Z,60.94
2018-11-01T07:54:38.593Z,60.71
2018-11-01T07:58:42.291Z,60.64
2018-11-01T08:02:46.825Z,60.56
2018-11-01T08:06:50.364Z,60.41
2018-11-01T08:10:54.283Z,60.40
2018-11-01T08:14:57.821Z,60.13
2018-11-01T08:19:01.787Z,60.11
2018-11-01T08:23:05.411Z,60.13
2018-11-01T08:27:09.058Z,60.05
2018-11-01T08:31:12.534Z,59.99
2018-11-01T08:35:16.588Z,59.90
2018-11-01T08:39:20.125Z,60.01
2018-11-01T08:43:23.589Z,59.59
2018-11-01T08:47:27.585Z,59.59
2018-11-01T08:51:31.162Z,59.48
2018-11-01T08:55:35.165Z,59.20
2018-11-01T08:59:39.600Z,58.73
2018-11-01T09:03:44.287Z,58.68
2018-11-01T09:07:48.299Z,58.49
2018-11-01T09:11:52.536Z,57.97
2018-11-01T09:15:56.099Z,57.98
2018-11-01T09:19:59.597Z,57.55
2018-11-01T09:24:04.366Z,57.87
2018-11-01T09:28:19.507Z,57.24
2018-11-01T09:32:23.244Z,56.92
2018-11-01T09:36:32.241Z,56.26
2018-11-01T09:40:40.033Z,56.24
2018-11-01T09:44:49.284Z,55.92
2018-11-01T09:48:56.935Z,55.77
2018-11-01T09:53:00.634Z,56.08
2018-11-01T09:57:25.401Z,55.75
2018-11-01T10:01:37.365Z,56.25
2018-11-01T10:05:41.079Z,56.29
2018-11-01T10:09:49.240Z,56.01
2018-11-01T10:14:05.028Z,55.84
2018-11-01T10:18:09.099Z,55.84
2018-11-01T10:22:12.525Z,56.07
2018-11-01T10:26:31.175Z,55.38
2018-11-01T10:30:34.897Z,55.40
2018-11-01T10:34:45.621Z,54.92
2018-11-01T10:38:52.560Z,54.79
2018-11-01T10:42:56.294Z,54.96
2018-11-01T10:46:59.950Z,55.42
2018-11-01T10:51:07.591Z,54.64
2018-11-01T10:55:37.095Z,54.45
2018-11-01T10:59:56.950Z,53.94
2018-11-01T11:04:06.544Z,53.54
2018-11-01T11:08:25.256Z,53.53
2018-11-01T11:12:30.803Z,53.07
2018-11-01T11:16:34.487Z,52.80
2018-11-01T11:20:40.100Z,52.95
2018-11-01T11:24:43.315Z,52.70
2018-11-01T11:28:52.087Z,53.04
2018-11-01T11:32:55.784Z,52.84
2018-11-01T11:37:05.283Z,53.99
2018-11-01T11:41:09.027Z,53.07
2018-11-01T11:45:45.309Z,53.59
2018-11-01T11:49:49.041Z,53.17
2018-11-01T11:53:52.549Z,51.51
2018-11-01T11:57:55.974Z,50.64
2018-11-01T12:01:59.438Z,50.76
2018-11-01T12:06:02.980Z,49.85
2018-11-01T12:10:07.460Z,50.48
2018-11-01T12:14:32.356Z,49.43
2018-11-01T12:18:39.738Z,49.07
2018-11-01T12:22:44.381Z,48.87
2018-11-01T12:26:48.120Z,49.19
2018-11-01T12:30:51.891Z,48.55
2018-11-01T12:34:58.845Z,48.56
2018-11-01T12:39:04.638Z,48.45
2018-11-01T12:43:08.075Z,47.99
2018-11-01T12:47:28.420Z,48.48
2018-11-01T12:51:33.554Z,48.00
2018-11-01T12:55:43.786Z,48.03
2018-11-01T12:59:47.570Z,48.35
2018-11-01T13:03:51.247Z,48.89
2018-11-01T13:07:59.085Z,49.59
2018-11-01T13:12:02.654Z,49.41
2018-11-01T13:16:06.445Z,50.04
2018-11-01T13:20:10.398Z,49.53
2018-11-01T13:24:29.132Z,49.49
2018-11-01T13:28:35.276Z,49.87
2018-11-01T13:32:39.181Z,50.49
2018-11-01T13:36:50.627Z,51.19
2018-11-01T13:41:09.951Z,51.00
2018-11-01T13:45:23.326Z,51.39
2018-11-01T13:49:27.047Z,51.88
2018-11-01T13:53:30.758Z,52.08
2018-11-01T13:57:51.324Z,51.96
2018-11-01T14:01:55.024Z,51.50
2018-11-01T14:06:02.024Z,51.41
2018-11-01T14:10:06.745Z,50.55
2018-11-01T14:14:10.500Z,50.82
2018-11-01T14:18:16.872Z,50.83
2018-11-01T14:22:20.518Z,51.14
2018-11-01T14:26:35.614Z,50.44
2018-11-01T14:30:39.349Z,50.70
2018-11-01T14:34:42.890Z,50.98
2018-11-01T14:38:56.545Z,50.54
2018-11-01T14:43:00.228Z,51.28
2018-11-01T14:47:03.752Z,51.48
2018-11-01T14:51:07.280Z,51.05
2018-11-01T14:55:11.904Z,51.90
2018-11-01T14:59:20.118Z,51.59
2018-11-01T15:03:26.513Z,52.21
2018-11-01T15:07:45.039Z,52.07
2018-11-01T15:12:01.981Z,51.97
2018-11-01T15:16:05.687Z,51.41
2018-11-01T15:20:16.281Z,51.47
2018-11-01T15:24:20.039Z,51.88
2018-11-01T15:28:23.781Z,51.34
2018-11-01T15:32:36.847Z,52.08
2018-11-01T15:36:40.520Z,52.38
2018-11-01T15:41:05.430Z,51.76
2018-11-01T15:45:10.102Z,52.49
2018-11-01T15:49:19.856Z,52.10
2018-11-01T15:53:28.671Z,52.24
2018-11-01T15:57:33.853Z,52.66
2018-11-01T16:01:37.590Z,52.12
2018-11-01T16:05:41.332Z,52.42
2018-11-01T16:09:45.119Z,52.15
2018-11-01T16:13:51.692Z,52.57
2018-11-01T16:17:55.223Z,52.84
2018-11-01T16:26:47.070Z,52.79
2018-11-01T16:31:04.129Z,52.20
2018-11-01T16:35:09.290Z,52.57
2018-11-01T16:39:14.701Z,52.68
2018-11-01T16:43:18.253Z,53.22
2018-11-01T16:47:21.985Z,52.93
2018-11-01T16:51:34.786Z,52.92
2018-11-01T16:55:38.539Z,53.18
2018-11-01T16:59:42.217Z,52.92
2018-11-01T17:03:45.720Z,53.08
2018-11-01T17:07:53.889Z,53.14
2018-11-01T17:11:59.028Z,53.23
2018-11-01T17:16:02.776Z,52.97
2018-11-01T17:20:20.760Z,53.07
2018-11-01T17:24:24.516Z,52.85
2018-11-01T17:28:32.236Z,53.18
2018-11-01T17:32:43.268Z,53.38
2018-11-01T17:36:51.800Z,53.30
2018-11-01T17:40:55.537Z,53.60
2018-11-01T17:44:59.235Z,53.53
2018-11-01T17:49:02.806Z,53.85
2018-11-01T17:53:16.159Z,53.57
2018-11-01T17:57:19.837Z,54.00
2018-11-01T18:01:35.090Z,54.13
2018-11-01T18:05:48.668Z,54.23
2018-11-01T18:09:58.655Z,54.24
2018-11-01T18:14:14.491Z,54.21
2018-11-01T18:18:18.111Z,54.29
2018-11-01T18:22:21.615Z,54.24
2018-11-01T18:26:25.063Z,54.24
2018-11-01T18:30:29.452Z,54.36
2018-11-01T18:34:34.092Z,54.88
2018-11-01T18:38:44.139Z,54.46
2018-11-01T18:42:50.090Z,54.51
2018-11-01T18:46:53.689Z,54.89
2018-11-01T18:50:57.142Z,55.48
2018-11-01T18:55:00.915Z,55.24
2018-11-01T18:59:05.064Z,55.59
2018-11-01T19:03:08.610Z,56.04
2018-11-01T19:07:12.079Z,55.83
2018-11-01T19:11:15.725Z,56.09
2018-11-01T19:15:19.366Z,56.55
2018-11-01T19:19:23.114Z,56.83
2018-11-01T19:23:27.245Z,57.16
2018-11-01T19:27:31.100Z,57.07
2018-11-01T19:31:35.225Z,57.39
2018-11-01T19:35:38.751Z,57.66
2018-11-01T19:39:42.213Z,57.97
2018-11-01T19:43:45.710Z,58.01
2018-11-01T19:47:50.220Z,58.08
2018-11-01T19:52:00.273Z,58.16
2018-11-01T19:56:08.456Z,58.29
2018-11-01T20:00:13.969Z,58.03
2018-11-01T20:04:19.961Z,58.33
2018-11-01T20:08:28.327Z,58.64
2018-11-01T20:12:32.019Z,58.52
2018-11-01T20:16:35.698Z,58.90
2018-11-01T20:20:50.448Z,58.78
2018-11-01T20:24:54.166Z,59.02
2018-11-01T20:28:57.684Z,59.29
2018-11-01T20:33:01.789Z,59.29
2018-11-01T20:37:06.220Z,59.67
2018-11-01T20:41:09.719Z,59.60
2018-11-01T20:45:13.787Z,59.91
2018-11-01T20:49:18.503Z,60.02
2018-11-01T20:53:22.009Z,60.66
2018-11-01T20:57:25.608Z,60.24
2018-11-01T21:01:29.139Z,60.45
2018-11-01T21:05:32.848Z,60.94
2018-11-01T21:09:36.402Z,60.93
2018-11-01T21:13:39.915Z,61.22
2018-11-01T21:17:44.027Z,61.00
2018-11-01T21:21:47.678Z,61.80
2018-11-01T21:25:51.801Z,61.72
2018-11-01T21:29:55.310Z,61.30
2018-11-01T21:33:58.970Z,61.56
2018-11-01T21:38:02.569Z,61.40
2018-11-01T21:42:07.335Z,61.74
2018-11-01T21:46:24.248Z,61.52
2018-11-01T21:50:27.925Z,61.76
2018-11-01T21:54:32.197Z,61.88
2018-11-01T21:58:36.511Z,61.63
2018-11-01T22:02:42.131Z,61.49
2018-11-01T22:06:45.894Z,61.51
2018-11-01T22:10:49.378Z,62.00
2018-11-01T22:14:52.938Z,61.89
2018-11-01T22:18:56.428Z,61.95
2018-11-01T22:22:59.990Z,61.58
2018-11-01T22:27:03.530Z,61.72
2018-11-01T22:31:07.748Z,61.55
2018-11-01T22:35:12.446Z,61.51
2018-11-01T22:39:16.194Z,61.65
2018-11-01T22:43:21.083Z,61.56
2018-11-01T22:47:24.629Z,61.76
2018-11-01T22:51:28.222Z,62.11
2018-11-01T22:55:32.685Z,62.01
2018-11-01T22:59:36.555Z,62.56
2018-11-01T23:03:40.658Z,62.41
2018-11-01T23:07:45.244Z,62.61
2018-11-01T23:11:48.995Z,62.59
2018-11-01T23:15:52.666Z,62.57
2018-11-01T23:19:56.686Z,62.63
2018-11-01T23:24:00.898Z,62.73
2018-11-01T23:28:09.588Z,62.55
2018-11-01T23:32:13.581Z,62.74
2018-11-01T23:36:24.727Z,62.65
2018-11-01T23:40:33.906Z,62.87
2018-11-01T23:44:42.733Z,62.78
2018-11-01T23:49:04.642Z,62.96
2018-11-01T23:53:13.414Z,62.86
2018-11-01T23:57:17.275Z,62.98
